sensor_id;sensor_type;location;lat;lon;timestamp;P1;durP1;ratioP1;P2;durP2;ratioP2
16524;SDS011;8375;33.594;-117.718;2023-11-22T00:00:05;1.15;;;0.70;;
16524;SDS011;8375;33.594;-117.718;2023-11-22T00:02:35;0.95;;;0.60;;
16524;SDS011;8375;33.594;-117.718;2023-11-22T00:05:04;2.63;;;0.70;;
16524;SDS011;8375;33.594;-117.718;2023-11-22T00:07:35;2.50;;;0.68;;
16524;SDS011;8375;33.594;-117.718;2023-11-22T00:10:04;1.42;;;0.65;;
16524;SDS011;8375;33.594;-117.718;2023-11-22T00:12:34;3.90;;;0.80;;
16524;SDS011;8375;33.594;-117.718;2023-11-22T01:41:29;5.25;;;1.77;;
16524;SDS011;8375;33.594;-117.718;2023-11-22T01:43:58;3.17;;;1.73;;
16524;SDS011;8375;33.594;-117.718;2023-11-22T01:46:28;4.22;;;1.20;;
16524;SDS011;8375;33.594;-117.718;2023-11-22T01:48:59;5.38;;;3.38;;
16524;SDS011;8375;33.594;-117.718;2023-11-22T01:51:28;10.68;;;6.88;;
16524;SDS011;8375;33.594;-117.718;2023-11-22T01:53:57;4.63;;;1.92;;
16524;SDS011;8375;33.594;-117.718;2023-11-22T01:56:27;6.95;;;2.90;;
16524;SDS011;8375;33.594;-117.718;2023-11-22T01:58:58;5.32;;;1.77;;
16524;SDS011;8375;33.594;-117.718;2023-11-22T02:01:27;5.60;;;1.80;;
16524;SDS011;8375;33.594;-117.718;2023-11-22T02:03:56;5.40;;;1.80;;
16524;SDS011;8375;33.594;-117.718;2023-11-22T02:06:25;3.05;;;1.70;;
16524;SDS011;8375;33.594;-117.718;2023-11-22T02:08:55;8.63;;;1.88;;
16524;SDS011;8375;33.594;-117.718;2023-11-22T02:11:23;5.45;;;1.60;;
16524;SDS011;8375;33.594;-117.718;2023-11-22T02:13:54;3.65;;;1.45;;
16524;SDS011;8375;33.594;-117.718;2023-11-22T02:16:23;2.90;;;1.55;;
16524;SDS011;8375;33.594;-117.718;2023-11-22T02:18:53;9.18;;;1.95;;
16524;SDS011;8375;33.594;-117.718;2023-11-22T02:21:21;7.88;;;2.13;;
16524;SDS011;8375;33.594;-117.718;2023-11-22T02:23:52;4.13;;;1.50;;
16524;SDS011;8375;33.594;-117.718;2023-11-22T02:26:20;6.30;;;2.00;;
16524;SDS011;8375;33.594;-117.718;2023-11-22T02:28:50;9.70;;;2.10;;
16524;SDS011;8375;33.594;-117.718;2023-11-22T02:31:19;8.90;;;2.00;;
16524;SDS011;8375;33.594;-117.718;2023-11-22T02:33:48;6.20;;;2.20;;
16524;SDS011;8375;33.594;-117.718;2023-11-22T02:36:17;5.53;;;1.60;;
16524;SDS011;8375;33.594;-117.718;2023-11-22T02:38:46;7.20;;;1.97;;
16524;SDS011;8375;33.594;-117.718;2023-11-22T02:41:16;6.30;;;1.90;;
16524;SDS011;8375;33.594;-117.718;2023-11-22T02:43:45;2.63;;;1.70;;
16524;SDS011;8375;33.594;-117.718;2023-11-22T02:46:13;4.80;;;1.80;;
16524;SDS011;8375;33.594;-117.718;2023-11-22T02:48:42;5.80;;;2.30;;
16524;SDS011;8375;33.594;-117.718;2023-11-22T02:51:10;6.07;;;1.67;;
16524;SDS011;8375;33.594;-117.718;2023-11-22T02:53:39;6.90;;;1.47;;
16524;SDS011;8375;33.594;-117.718;2023-11-22T02:56:11;4.57;;;1.60;;
16524;SDS011;8375;33.594;-117.718;2023-11-22T02:58:42;2.27;;;1.67;;
16524;SDS011;8375;33.594;-117.718;2023-11-22T03:01:11;4.97;;;1.60;;
16524;SDS011;8375;33.594;-117.718;2023-11-22T03:03:40;2.70;;;1.80;;
16524;SDS011;8375;33.594;-117.718;2023-11-22T03:06:09;2.30;;;1.60;;
16524;SDS011;8375;33.594;-117.718;2023-11-22T03:08:37;2.60;;;1.50;;
16524;SDS011;8375;33.594;-117.718;2023-11-22T03:11:05;2.83;;;1.50;;
16524;SDS011;8375;33.594;-117.718;2023-11-22T03:13:33;5.43;;;1.70;;
16524;SDS011;8375;33.594;-117.718;2023-11-22T03:16:04;4.03;;;1.80;;
16524;SDS011;8375;33.594;-117.718;2023-11-22T03:18:34;5.23;;;1.53;;
16524;SDS011;8375;33.594;-117.718;2023-11-22T03:21:04;6.97;;;5.07;;
16524;SDS011;8375;33.594;-117.718;2023-11-22T03:23:33;6.73;;;4.37;;
16524;SDS011;8375;33.594;-117.718;2023-11-22T03:26:01;7.53;;;4.10;;
16524;SDS011;8375;33.594;-117.718;2023-11-22T03:28:30;2.00;;;1.70;;
16524;SDS011;8375;33.594;-117.718;2023-11-22T03:30:59;4.57;;;1.40;;
16524;SDS011;8375;33.594;-117.718;2023-11-22T03:33:30;4.10;;;1.73;;
16524;SDS011;8375;33.594;-117.718;2023-11-22T03:35:58;3.03;;;1.50;;
16524;SDS011;8375;33.594;-117.718;2023-11-22T03:38:27;3.07;;;1.77;;
16524;SDS011;8375;33.594;-117.718;2023-11-22T03:49:14;2.90;;;1.90;;
16524;SDS011;8375;33.594;-117.718;2023-11-22T03:51:43;5.60;;;1.90;;
16524;SDS011;8375;33.594;-117.718;2023-11-22T03:54:11;2.00;;;1.63;;
16524;SDS011;8375;33.594;-117.718;2023-11-22T03:56:40;2.70;;;1.90;;
16524;SDS011;8375;33.594;-117.718;2023-11-22T03:59:09;5.67;;;1.87;;
16524;SDS011;8375;33.594;-117.718;2023-11-22T04:01:38;3.70;;;1.60;;
16524;SDS011;8375;33.594;-117.718;2023-11-22T04:04:07;2.50;;;1.50;;
16524;SDS011;8375;33.594;-117.718;2023-11-22T04:06:37;1.90;;;1.57;;
16524;SDS011;8375;33.594;-117.718;2023-11-22T04:09:06;1.77;;;1.30;;
16524;SDS011;8375;33.594;-117.718;2023-11-22T04:11:37;2.97;;;1.40;;
16524;SDS011;8375;33.594;-117.718;2023-11-22T04:14:06;2.27;;;1.30;;
16524;SDS011;8375;33.594;-117.718;2023-11-22T04:16:35;3.53;;;1.40;;
16524;SDS011;8375;33.594;-117.718;2023-11-22T04:19:03;2.83;;;1.33;;
16524;SDS011;8375;33.594;-117.718;2023-11-22T04:21:32;2.33;;;1.30;;
16524;SDS011;8375;33.594;-117.718;2023-11-22T04:24:02;2.17;;;1.20;;
16524;SDS011;8375;33.594;-117.718;2023-11-22T04:26:31;2.40;;;1.67;;
16524;SDS011;8375;33.594;-117.718;2023-11-22T04:29:00;5.30;;;1.30;;
16524;SDS011;8375;33.594;-117.718;2023-11-22T04:31:30;2.20;;;1.30;;
16524;SDS011;8375;33.594;-117.718;2023-11-22T04:33:58;2.77;;;1.23;;
16524;SDS011;8375;33.594;-117.718;2023-11-22T04:36:27;2.87;;;1.20;;
16524;SDS011;8375;33.594;-117.718;2023-11-22T04:38:56;5.00;;;1.40;;
16524;SDS011;8375;33.594;-117.718;2023-11-22T04:41:31;6.40;;;1.30;;
16524;SDS011;8375;33.594;-117.718;2023-11-22T04:44:00;4.30;;;1.50;;
16524;SDS011;8375;33.594;-117.718;2023-11-22T04:46:29;3.97;;;1.20;;
16524;SDS011;8375;33.594;-117.718;2023-11-22T04:48:58;2.70;;;1.33;;
16524;SDS011;8375;33.594;-117.718;2023-11-22T04:51:26;4.13;;;1.33;;
16524;SDS011;8375;33.594;-117.718;2023-11-22T04:53:55;2.23;;;1.40;;
16524;SDS011;8375;33.594;-117.718;2023-11-22T04:56:24;1.83;;;1.20;;
16524;SDS011;8375;33.594;-117.718;2023-11-22T04:58:54;1.77;;;1.20;;
16524;SDS011;8375;33.594;-117.718;2023-11-22T05:01:24;2.50;;;1.10;;
16524;SDS011;8375;33.594;-117.718;2023-11-22T05:03:58;1.90;;;1.30;;
16524;SDS011;8375;33.594;-117.718;2023-11-22T05:06:27;2.40;;;1.10;;
16524;SDS011;8375;33.594;-117.718;2023-11-22T05:08:56;3.70;;;1.30;;
16524;SDS011;8375;33.594;-117.718;2023-11-22T05:11:24;2.60;;;1.00;;
16524;SDS011;8375;33.594;-117.718;2023-11-22T05:13:55;5.80;;;3.77;;
16524;SDS011;8375;33.594;-117.718;2023-11-22T05:16:23;4.33;;;3.13;;
16524;SDS011;8375;33.594;-117.718;2023-11-22T05:18:52;2.93;;;1.43;;
16524;SDS011;8375;33.594;-117.718;2023-11-22T05:21:21;2.23;;;1.33;;
16524;SDS011;8375;33.594;-117.718;2023-11-22T05:23:49;3.60;;;1.00;;
16524;SDS011;8375;33.594;-117.718;2023-11-22T05:26:19;4.57;;;1.20;;
16524;SDS011;8375;33.594;-117.718;2023-11-22T05:28:47;4.03;;;1.30;;
16524;SDS011;8375;33.594;-117.718;2023-11-22T05:31:18;2.30;;;2.03;;
16524;SDS011;8375;33.594;-117.718;2023-11-22T05:33:46;2.97;;;1.17;;
16524;SDS011;8375;33.594;-117.718;2023-11-22T05:36:15;3.07;;;1.30;;
16524;SDS011;8375;33.594;-117.718;2023-11-22T05:38:44;2.60;;;1.20;;
16524;SDS011;8375;33.594;-117.718;2023-11-22T05:41:11;2.97;;;1.27;;
16524;SDS011;8375;33.594;-117.718;2023-11-22T05:43:41;1.67;;;1.07;;
16524;SDS011;8375;33.594;-117.718;2023-11-22T05:46:10;2.77;;;1.27;;
16524;SDS011;8375;33.594;-117.718;2023-11-22T05:48:40;2.97;;;1.40;;
16524;SDS011;8375;33.594;-117.718;2023-11-22T05:51:08;1.97;;;1.10;;
16524;SDS011;8375;33.594;-117.718;2023-11-22T05:53:37;5.03;;;1.37;;
16524;SDS011;8375;33.594;-117.718;2023-11-22T05:56:06;2.77;;;1.23;;
16524;SDS011;8375;33.594;-117.718;2023-11-22T05:58:35;2.33;;;1.03;;
16524;SDS011;8375;33.594;-117.718;2023-11-22T06:01:04;4.00;;;1.50;;
16524;SDS011;8375;33.594;-117.718;2023-11-22T06:03:36;4.03;;;1.60;;
16524;SDS011;8375;33.594;-117.718;2023-11-22T06:06:06;10.80;;;2.10;;
16524;SDS011;8375;33.594;-117.718;2023-11-22T06:08:35;4.40;;;1.57;;
16524;SDS011;8375;33.594;-117.718;2023-11-22T06:11:04;3.57;;;2.10;;
16524;SDS011;8375;33.594;-117.718;2023-11-22T06:13:33;7.37;;;2.13;;
16524;SDS011;8375;33.594;-117.718;2023-11-22T06:16:02;5.13;;;2.13;;
16524;SDS011;8375;33.594;-117.718;2023-11-22T06:18:32;6.37;;;2.03;;
16524;SDS011;8375;33.594;-117.718;2023-11-22T06:21:07;3.17;;;2.07;;
16524;SDS011;8375;33.594;-117.718;2023-11-22T06:23:37;4.40;;;1.63;;
16524;SDS011;8375;33.594;-117.718;2023-11-22T06:26:05;5.50;;;2.13;;
16524;SDS011;8375;33.594;-117.718;2023-11-22T06:28:34;4.70;;;2.00;;
16524;SDS011;8375;33.594;-117.718;2023-11-22T06:31:02;2.87;;;1.40;;
16524;SDS011;8375;33.594;-117.718;2023-11-22T06:33:31;6.53;;;2.10;;
16524;SDS011;8375;33.594;-117.718;2023-11-22T06:36:01;4.17;;;1.87;;
16524;SDS011;8375;33.594;-117.718;2023-11-22T06:38:31;3.63;;;1.87;;
16524;SDS011;8375;33.594;-117.718;2023-11-22T06:41:00;4.43;;;2.10;;
16524;SDS011;8375;33.594;-117.718;2023-11-22T06:43:29;4.40;;;1.53;;
16524;SDS011;8375;33.594;-117.718;2023-11-22T06:45:57;5.70;;;1.80;;
16524;SDS011;8375;33.594;-117.718;2023-11-22T06:48:28;5.27;;;2.07;;
16524;SDS011;8375;33.594;-117.718;2023-11-22T06:50:56;7.73;;;1.60;;
16524;SDS011;8375;33.594;-117.718;2023-11-22T06:53:25;5.47;;;2.10;;
16524;SDS011;8375;33.594;-117.718;2023-11-22T06:55:55;4.10;;;1.57;;
16524;SDS011;8375;33.594;-117.718;2023-11-22T06:58:24;3.83;;;1.70;;
16524;SDS011;8375;33.594;-117.718;2023-11-22T07:00:53;4.93;;;1.83;;
16524;SDS011;8375;33.594;-117.718;2023-11-22T07:03:21;3.17;;;2.23;;
16524;SDS011;8375;33.594;-117.718;2023-11-22T07:05:50;4.17;;;1.70;;
16524;SDS011;8375;33.594;-117.718;2023-11-22T07:08:19;3.10;;;1.70;;
16524;SDS011;8375;33.594;-117.718;2023-11-22T07:10:47;3.07;;;1.60;;
16524;SDS011;8375;33.594;-117.718;2023-11-22T07:13:18;4.73;;;1.40;;
16524;SDS011;8375;33.594;-117.718;2023-11-22T07:15:46;2.73;;;1.53;;
16524;SDS011;8375;33.594;-117.718;2023-11-22T07:18:16;5.27;;;1.60;;
16524;SDS011;8375;33.594;-117.718;2023-11-22T07:20:45;3.57;;;1.20;;
16524;SDS011;8375;33.594;-117.718;2023-11-22T07:23:14;3.53;;;1.60;;
16524;SDS011;8375;33.594;-117.718;2023-11-22T07:25:42;6.73;;;1.60;;
16524;SDS011;8375;33.594;-117.718;2023-11-22T07:28:11;4.23;;;1.63;;
16524;SDS011;8375;33.594;-117.718;2023-11-22T07:30:41;3.30;;;1.40;;
16524;SDS011;8375;33.594;-117.718;2023-11-22T07:33:10;3.20;;;1.50;;
16524;SDS011;8375;33.594;-117.718;2023-11-22T07:35:38;3.60;;;1.23;;
16524;SDS011;8375;33.594;-117.718;2023-11-22T07:38:07;6.10;;;1.70;;
16524;SDS011;8375;33.594;-117.718;2023-11-22T07:40:37;1.80;;;1.00;;
16524;SDS011;8375;33.594;-117.718;2023-11-22T07:43:07;1.63;;;1.10;;
16524;SDS011;8375;33.594;-117.718;2023-11-22T07:45:36;5.63;;;1.40;;
16524;SDS011;8375;33.594;-117.718;2023-11-22T07:48:06;3.20;;;1.17;;
16524;SDS011;8375;33.594;-117.718;2023-11-22T07:50:37;4.77;;;1.40;;
16524;SDS011;8375;33.594;-117.718;2023-11-22T07:53:09;3.93;;;1.43;;
16524;SDS011;8375;33.594;-117.718;2023-11-22T07:55:40;3.10;;;1.43;;
16524;SDS011;8375;33.594;-117.718;2023-11-22T07:58:09;4.97;;;2.47;;
16524;SDS011;8375;33.594;-117.718;2023-11-22T08:00:38;3.00;;;1.30;;
16524;SDS011;8375;33.594;-117.718;2023-11-22T08:03:10;1.50;;;1.10;;
16524;SDS011;8375;33.594;-117.718;2023-11-22T08:05:41;1.87;;;1.20;;
16524;SDS011;8375;33.594;-117.718;2023-11-22T08:08:13;4.40;;;1.20;;
16524;SDS011;8375;33.594;-117.718;2023-11-22T08:10:42;2.13;;;1.30;;
16524;SDS011;8375;33.594;-117.718;2023-11-22T08:13:13;2.73;;;1.43;;
16524;SDS011;8375;33.594;-117.718;2023-11-22T08:15:42;1.33;;;1.10;;
16524;SDS011;8375;33.594;-117.718;2023-11-22T08:18:13;1.93;;;0.90;;
16524;SDS011;8375;33.594;-117.718;2023-11-22T08:20:42;3.03;;;1.13;;
16524;SDS011;8375;33.594;-117.718;2023-11-22T08:23:11;1.43;;;0.70;;
16524;SDS011;8375;33.594;-117.718;2023-11-22T08:25:40;3.17;;;0.77;;
16524;SDS011;8375;33.594;-117.718;2023-11-22T08:28:09;6.67;;;3.10;;
16524;SDS011;8375;33.594;-117.718;2023-11-22T08:30:38;4.53;;;2.30;;
16524;SDS011;8375;33.594;-117.718;2023-11-22T08:33:07;3.70;;;1.43;;
16524;SDS011;8375;33.594;-117.718;2023-11-22T08:35:37;3.40;;;1.37;;
16524;SDS011;8375;33.594;-117.718;2023-11-22T08:38:06;2.10;;;1.30;;
16524;SDS011;8375;33.594;-117.718;2023-11-22T08:40:35;4.33;;;1.20;;
16524;SDS011;8375;33.594;-117.718;2023-11-22T08:43:04;2.07;;;1.10;;
16524;SDS011;8375;33.594;-117.718;2023-11-22T08:45:33;4.60;;;0.90;;
16524;SDS011;8375;33.594;-117.718;2023-11-22T08:48:01;5.07;;;1.30;;
16524;SDS011;8375;33.594;-117.718;2023-11-22T08:50:30;2.40;;;1.23;;
16524;SDS011;8375;33.594;-117.718;2023-11-22T08:53:01;4.90;;;1.30;;
16524;SDS011;8375;33.594;-117.718;2023-11-22T08:55:31;2.00;;;1.20;;
16524;SDS011;8375;33.594;-117.718;2023-11-22T08:58:00;1.70;;;1.03;;
16524;SDS011;8375;33.594;-117.718;2023-11-22T09:00:27;1.73;;;1.10;;
16524;SDS011;8375;33.594;-117.718;2023-11-22T09:02:57;2.60;;;1.30;;
16524;SDS011;8375;33.594;-117.718;2023-11-22T09:05:26;2.90;;;1.60;;
16524;SDS011;8375;33.594;-117.718;2023-11-22T09:07:55;2.10;;;1.30;;
16524;SDS011;8375;33.594;-117.718;2023-11-22T09:10:26;4.90;;;1.50;;
16524;SDS011;8375;33.594;-117.718;2023-11-22T09:12:55;3.53;;;1.50;;
16524;SDS011;8375;33.594;-117.718;2023-11-22T09:15:25;2.97;;;1.07;;
16524;SDS011;8375;33.594;-117.718;2023-11-22T09:17:55;1.47;;;1.00;;
16524;SDS011;8375;33.594;-117.718;2023-11-22T10:33:56;2.13;;;1.30;;
16524;SDS011;8375;33.594;-117.718;2023-11-22T10:36:25;1.63;;;1.40;;
16524;SDS011;8375;33.594;-117.718;2023-11-22T10:38:54;1.80;;;1.10;;
16524;SDS011;8375;33.594;-117.718;2023-11-22T10:41:23;1.83;;;1.53;;
16524;SDS011;8375;33.594;-117.718;2023-11-22T10:43:52;2.50;;;1.53;;
16524;SDS011;8375;33.594;-117.718;2023-11-22T10:46:21;3.03;;;1.03;;
16524;SDS011;8375;33.594;-117.718;2023-11-22T10:48:56;3.10;;;1.40;;
16524;SDS011;8375;33.594;-117.718;2023-11-22T10:51:26;3.27;;;1.10;;
16524;SDS011;8375;33.594;-117.718;2023-11-22T10:53:58;1.60;;;1.23;;
16524;SDS011;8375;33.594;-117.718;2023-11-22T10:56:30;1.90;;;1.10;;
16524;SDS011;8375;33.594;-117.718;2023-11-22T10:59:05;3.87;;;1.63;;
16524;SDS011;8375;33.594;-117.718;2023-11-22T11:01:41;1.53;;;1.10;;
16524;SDS011;8375;33.594;-117.718;2023-11-22T11:04:27;2.90;;;1.00;;
16524;SDS011;8375;33.594;-117.718;2023-11-22T11:07:02;1.10;;;1.00;;
16524;SDS011;8375;33.594;-117.718;2023-11-22T11:09:36;1.73;;;1.07;;
16524;SDS011;8375;33.594;-117.718;2023-11-22T11:12:09;2.40;;;1.30;;
16524;SDS011;8375;33.594;-117.718;2023-11-22T11:14:38;2.00;;;1.00;;
16524;SDS011;8375;33.594;-117.718;2023-11-22T11:17:12;2.50;;;1.43;;
16524;SDS011;8375;33.594;-117.718;2023-11-22T11:19:44;1.63;;;1.10;;
16524;SDS011;8375;33.594;-117.718;2023-11-22T11:22:16;2.00;;;0.97;;
16524;SDS011;8375;33.594;-117.718;2023-11-22T11:24:46;2.83;;;1.20;;
16524;SDS011;8375;33.594;-117.718;2023-11-22T11:27:18;2.53;;;0.83;;
16524;SDS011;8375;33.594;-117.718;2023-11-22T11:29:48;2.20;;;0.87;;
16524;SDS011;8375;33.594;-117.718;2023-11-22T11:32:29;3.40;;;1.13;;
16524;SDS011;8375;33.594;-117.718;2023-11-22T11:35:02;1.13;;;0.90;;
16524;SDS011;8375;33.594;-117.718;2023-11-22T11:37:35;2.37;;;1.47;;
16524;SDS011;8375;33.594;-117.718;2023-11-22T11:43:00;5.20;;;1.03;;
16524;SDS011;8375;33.594;-117.718;2023-11-22T11:45:29;1.57;;;0.80;;
16524;SDS011;8375;33.594;-117.718;2023-11-22T11:48:03;2.33;;;1.00;;
16524;SDS011;8375;33.594;-117.718;2023-11-22T11:50:35;2.93;;;1.20;;
16524;SDS011;8375;33.594;-117.718;2023-11-22T11:53:05;1.13;;;0.80;;
16524;SDS011;8375;33.594;-117.718;2023-11-22T11:55:35;1.80;;;1.00;;
16524;SDS011;8375;33.594;-117.718;2023-11-22T11:58:04;1.33;;;0.80;;
16524;SDS011;8375;33.594;-117.718;2023-11-22T12:00:38;2.03;;;0.80;;
16524;SDS011;8375;33.594;-117.718;2023-11-22T12:03:23;3.63;;;1.10;;
16524;SDS011;8375;33.594;-117.718;2023-11-22T12:06:00;1.20;;;0.93;;
16524;SDS011;8375;33.594;-117.718;2023-11-22T12:08:29;2.50;;;1.30;;
16524;SDS011;8375;33.594;-117.718;2023-11-22T12:11:01;2.00;;;1.10;;
16524;SDS011;8375;33.594;-117.718;2023-11-22T12:13:33;1.70;;;1.00;;
16524;SDS011;8375;33.594;-117.718;2023-11-22T12:16:04;2.10;;;1.10;;
16524;SDS011;8375;33.594;-117.718;2023-11-22T12:18:39;5.20;;;1.37;;
16524;SDS011;8375;33.594;-117.718;2023-11-22T12:21:15;9.57;;;1.83;;
16524;SDS011;8375;33.594;-117.718;2023-11-22T12:23:51;3.43;;;1.03;;
16524;SDS011;8375;33.594;-117.718;2023-11-22T12:26:23;1.87;;;1.20;;
16524;SDS011;8375;33.594;-117.718;2023-11-22T12:28:53;2.93;;;1.33;;
16524;SDS011;8375;33.594;-117.718;2023-11-22T12:31:24;2.57;;;1.30;;
16524;SDS011;8375;33.594;-117.718;2023-11-22T12:42:13;1.10;;;1.00;;
16524;SDS011;8375;33.594;-117.718;2023-11-22T12:44:49;1.10;;;1.00;;
16524;SDS011;8375;33.594;-117.718;2023-11-22T12:47:32;1.30;;;0.97;;
16524;SDS011;8375;33.594;-117.718;2023-11-22T12:50:03;1.10;;;0.90;;
16524;SDS011;8375;33.594;-117.718;2023-11-22T12:52:34;1.43;;;0.83;;
16524;SDS011;8375;33.594;-117.718;2023-11-22T12:55:05;2.90;;;1.00;;
16524;SDS011;8375;33.594;-117.718;2023-11-22T12:57:41;3.53;;;0.97;;
16524;SDS011;8375;33.594;-117.718;2023-11-22T13:00:23;2.50;;;0.80;;
16524;SDS011;8375;33.594;-117.718;2023-11-22T13:03:10;2.80;;;1.00;;
16524;SDS011;8375;33.594;-117.718;2023-11-22T13:05:43;1.43;;;0.70;;
16524;SDS011;8375;33.594;-117.718;2023-11-22T13:08:21;1.80;;;0.87;;
16524;SDS011;8375;33.594;-117.718;2023-11-22T13:10:55;1.47;;;0.90;;
16524;SDS011;8375;33.594;-117.718;2023-11-22T13:13:30;1.77;;;1.00;;
16524;SDS011;8375;33.594;-117.718;2023-11-22T13:16:01;2.37;;;0.80;;
16524;SDS011;8375;33.594;-117.718;2023-11-22T13:18:32;1.43;;;0.80;;
16524;SDS011;8375;33.594;-117.718;2023-11-22T13:21:05;2.80;;;0.90;;
16524;SDS011;8375;33.594;-117.718;2023-11-22T13:23:35;1.33;;;0.90;;
16524;SDS011;8375;33.594;-117.718;2023-11-22T13:26:04;2.57;;;1.00;;
16524;SDS011;8375;33.594;-117.718;2023-11-22T13:28:38;2.77;;;0.87;;
16524;SDS011;8375;33.594;-117.718;2023-11-22T13:31:15;1.63;;;1.10;;
16524;SDS011;8375;33.594;-117.718;2023-11-22T13:33:45;3.13;;;1.00;;
16524;SDS011;8375;33.594;-117.718;2023-11-22T13:36:15;1.87;;;0.60;;
16524;SDS011;8375;33.594;-117.718;2023-11-22T13:38:44;1.47;;;0.60;;
16524;SDS011;8375;33.594;-117.718;2023-11-22T13:41:14;3.67;;;1.33;;
16524;SDS011;8375;33.594;-117.718;2023-11-22T13:43:46;4.93;;;1.00;;
16524;SDS011;8375;33.594;-117.718;2023-11-22T13:46:21;0.70;;;0.60;;
16524;SDS011;8375;33.594;-117.718;2023-11-22T13:49:00;1.90;;;0.90;;
16524;SDS011;8375;33.594;-117.718;2023-11-22T13:51:30;4.17;;;0.90;;
16524;SDS011;8375;33.594;-117.718;2023-11-22T13:54:03;1.20;;;0.80;;
16524;SDS011;8375;33.594;-117.718;2023-11-22T13:56:33;1.30;;;0.70;;
16524;SDS011;8375;33.594;-117.718;2023-11-22T13:59:05;0.90;;;0.73;;
16524;SDS011;8375;33.594;-117.718;2023-11-22T14:01:37;1.40;;;0.73;;
16524;SDS011;8375;33.594;-117.718;2023-11-22T14:04:12;1.77;;;0.80;;
16524;SDS011;8375;33.594;-117.718;2023-11-22T14:06:43;2.60;;;0.80;;
16524;SDS011;8375;33.594;-117.718;2023-11-22T14:09:12;2.80;;;0.80;;
16524;SDS011;8375;33.594;-117.718;2023-11-22T14:11:45;2.40;;;0.87;;
16524;SDS011;8375;33.594;-117.718;2023-11-22T14:14:17;1.67;;;0.90;;
16524;SDS011;8375;33.594;-117.718;2023-11-22T14:16:47;1.53;;;0.90;;
16524;SDS011;8375;33.594;-117.718;2023-11-22T14:19:21;3.00;;;1.10;;
16524;SDS011;8375;33.594;-117.718;2023-11-22T14:21:53;1.77;;;1.13;;
16524;SDS011;8375;33.594;-117.718;2023-11-22T14:24:26;1.57;;;1.40;;
16524;SDS011;8375;33.594;-117.718;2023-11-22T14:27:05;1.10;;;1.00;;
16524;SDS011;8375;33.594;-117.718;2023-11-22T14:29:37;0.93;;;0.83;;
16524;SDS011;8375;33.594;-117.718;2023-11-22T14:32:10;2.67;;;0.83;;
16524;SDS011;8375;33.594;-117.718;2023-11-22T14:34:39;2.03;;;0.93;;
16524;SDS011;8375;33.594;-117.718;2023-11-22T14:37:09;0.93;;;0.80;;
16524;SDS011;8375;33.594;-117.718;2023-11-22T14:39:37;1.80;;;0.80;;
16524;SDS011;8375;33.594;-117.718;2023-11-22T16:05:57;3.15;;;1.50;;
16524;SDS011;8375;33.594;-117.718;2023-11-22T16:08:28;3.88;;;1.25;;
16524;SDS011;8375;33.594;-117.718;2023-11-22T16:10:57;3.83;;;1.30;;
16524;SDS011;8375;33.594;-117.718;2023-11-22T16:13:26;3.13;;;1.30;;
16524;SDS011;8375;33.594;-117.718;2023-11-22T16:15:55;4.23;;;1.23;;
16524;SDS011;8375;33.594;-117.718;2023-11-22T16:18:25;4.03;;;1.20;;
16524;SDS011;8375;33.594;-117.718;2023-11-22T16:20:54;4.20;;;1.20;;
16524;SDS011;8375;33.594;-117.718;2023-11-22T16:23:25;2.30;;;1.17;;
16524;SDS011;8375;33.594;-117.718;2023-11-22T16:25:53;2.50;;;1.67;;
16524;SDS011;8375;33.594;-117.718;2023-11-22T16:28:22;5.07;;;1.52;;
16524;SDS011;8375;33.594;-117.718;2023-11-22T16:30:51;2.92;;;1.27;;
16524;SDS011;8375;33.594;-117.718;2023-11-22T16:33:20;6.18;;;1.50;;
16524;SDS011;8375;33.594;-117.718;2023-11-22T16:35:48;3.58;;;1.40;;
16524;SDS011;8375;33.594;-117.718;2023-11-22T16:38:18;3.97;;;1.30;;
16524;SDS011;8375;33.594;-117.718;2023-11-22T16:40:47;3.13;;;1.50;;
16524;SDS011;8375;33.594;-117.718;2023-11-22T16:43:18;2.78;;;1.30;;
16524;SDS011;8375;33.594;-117.718;2023-11-22T16:45:47;4.30;;;1.60;;
16524;SDS011;8375;33.594;-117.718;2023-11-22T16:48:16;4.45;;;1.30;;
16524;SDS011;8375;33.594;-117.718;2023-11-22T16:50:48;3.25;;;1.05;;
16524;SDS011;8375;33.594;-117.718;2023-11-22T16:53:20;3.00;;;1.20;;
16524;SDS011;8375;33.594;-117.718;2023-11-22T16:55:49;3.10;;;1.40;;
16524;SDS011;8375;33.594;-117.718;2023-11-22T16:58:18;4.00;;;1.42;;
16524;SDS011;8375;33.594;-117.718;2023-11-22T17:00:46;3.67;;;1.42;;
16524;SDS011;8375;33.594;-117.718;2023-11-22T17:03:16;3.22;;;1.60;;
16524;SDS011;8375;33.594;-117.718;2023-11-22T17:05:46;2.72;;;1.15;;
16524;SDS011;8375;33.594;-117.718;2023-11-22T17:08:15;3.03;;;1.17;;
16524;SDS011;8375;33.594;-117.718;2023-11-22T17:10:46;3.90;;;1.30;;
16524;SDS011;8375;33.594;-117.718;2023-11-22T17:13:15;5.10;;;1.20;;
16524;SDS011;8375;33.594;-117.718;2023-11-22T17:15:43;5.22;;;1.55;;
16524;SDS011;8375;33.594;-117.718;2023-11-22T17:18:12;1.35;;;0.75;;
16524;SDS011;8375;33.594;-117.718;2023-11-22T17:20:41;4.47;;;1.30;;
16524;SDS011;8375;33.594;-117.718;2023-11-22T17:23:10;2.22;;;0.90;;
16524;SDS011;8375;33.594;-117.718;2023-11-22T17:25:38;2.33;;;1.05;;
16524;SDS011;8375;33.594;-117.718;2023-11-22T17:28:09;1.17;;;0.70;;
16524;SDS011;8375;33.594;-117.718;2023-11-22T17:30:37;1.88;;;0.98;;
16524;SDS011;8375;33.594;-117.718;2023-11-22T17:33:06;0.90;;;0.52;;
16524;SDS011;8375;33.594;-117.718;2023-11-22T17:35:35;2.80;;;0.80;;
16524;SDS011;8375;33.594;-117.718;2023-11-22T17:38:03;1.42;;;0.50;;
16524;SDS011;8375;33.594;-117.718;2023-11-22T17:40:33;0.40;;;0.40;;
16524;SDS011;8375;33.594;-117.718;2023-11-22T17:43:01;2.08;;;0.52;;
16524;SDS011;8375;33.594;-117.718;2023-11-22T17:45:32;3.10;;;0.68;;
16524;SDS011;8375;33.594;-117.718;2023-11-22T17:48:04;1.38;;;0.85;;
16524;SDS011;8375;33.594;-117.718;2023-11-22T17:50:33;0.73;;;0.40;;
16524;SDS011;8375;33.594;-117.718;2023-11-22T17:53:03;0.30;;;0.30;;
16524;SDS011;8375;33.594;-117.718;2023-11-22T17:55:32;0.57;;;0.50;;
16524;SDS011;8375;33.594;-117.718;2023-11-22T17:58:00;0.98;;;0.52;;
16524;SDS011;8375;33.594;-117.718;2023-11-22T18:00:29;1.02;;;0.43;;
16524;SDS011;8375;33.594;-117.718;2023-11-22T18:02:59;0.80;;;0.50;;
16524;SDS011;8375;33.594;-117.718;2023-11-22T18:11:20;2.35;;;0.45;;
16524;SDS011;8375;33.594;-117.718;2023-11-22T18:13:50;0.57;;;0.50;;
16524;SDS011;8375;33.594;-117.718;2023-11-22T18:16:21;0.75;;;0.50;;
16524;SDS011;8375;33.594;-117.718;2023-11-22T18:18:52;2.05;;;0.50;;
16524;SDS011;8375;33.594;-117.718;2023-11-22T18:21:21;2.22;;;0.50;;
16524;SDS011;8375;33.594;-117.718;2023-11-22T18:23:50;1.27;;;0.50;;
16524;SDS011;8375;33.594;-117.718;2023-11-22T18:26:22;0.65;;;0.38;;
16524;SDS011;8375;33.594;-117.718;2023-11-22T18:28:51;0.70;;;0.50;;
16524;SDS011;8375;33.594;-117.718;2023-11-22T18:31:20;3.50;;;0.40;;
16524;SDS011;8375;33.594;-117.718;2023-11-22T18:33:49;5.28;;;0.70;;
16524;SDS011;8375;33.594;-117.718;2023-11-22T18:36:20;1.77;;;0.60;;
16524;SDS011;8375;33.594;-117.718;2023-11-22T18:38:49;0.57;;;0.40;;
16524;SDS011;8375;33.594;-117.718;2023-11-22T18:41:18;2.53;;;0.80;;
16524;SDS011;8375;33.594;-117.718;2023-11-22T18:43:46;4.88;;;1.08;;
16524;SDS011;8375;33.594;-117.718;2023-11-22T18:46:15;1.60;;;0.98;;
16524;SDS011;8375;33.594;-117.718;2023-11-22T18:48:44;1.58;;;0.95;;
16524;SDS011;8375;33.594;-117.718;2023-11-22T18:51:15;1.70;;;0.50;;
16524;SDS011;8375;33.594;-117.718;2023-11-22T18:53:43;4.18;;;2.47;;
16524;SDS011;8375;33.594;-117.718;2023-11-22T18:56:12;1.02;;;0.60;;
16524;SDS011;8375;33.594;-117.718;2023-11-22T18:58:41;0.70;;;0.47;;
16524;SDS011;8375;33.594;-117.718;2023-11-22T19:01:10;0.80;;;0.50;;
16524;SDS011;8375;33.594;-117.718;2023-11-22T19:03:39;1.92;;;0.50;;
16524;SDS011;8375;33.594;-117.718;2023-11-22T19:06:08;0.30;;;0.30;;